TGL66PC LFLL-EKCH
Flight info
| Callsign | TGL66PC |
|---|---|
| Flight time | 1h 45m |
| Altitude | 36000 |
| Route | RISOR T45 SOSAL N871 KORED DCT BERSU DCT DITON/N0433F370 DCT LOKTA DCT TEDGO DCT HAREM DCT LOHRE DCT BERXO DCT MAKEL N851 GESKA Z711 MONAK |
| Aircraft | A320/M-SDE3FGHIRWY/LB1 |
Departure
| Time | 2026-05-05 14:02 |
|---|---|
| Airport | Lyon Saint-Exupéry Airport (LFLL) |
Arrival
| Time | 2026-05-05 15:48 |
|---|---|
| Airport | Copenhagen Kastrup Airport (EKCH) |
| Time | Latitude | Longitude | Altitude | Speed | Heading |
|---|---|---|---|---|---|
| 2026-05-05 13:19 | 45.71781 | 5.08014 | 796 ft | 0 kts | 248° |
| 2026-05-05 13:46 | 45.71783 | 5.08017 | 796 ft | 3 kts | 248° |
| 2026-05-05 13:46 | 45.71789 | 5.08044 | 796 ft | 3 kts | 260° |
| 2026-05-05 13:46 | 45.71790 | 5.08073 | 796 ft | 3 kts | 280° |
| 2026-05-05 13:46 | 45.71785 | 5.08098 | 796 ft | 3 kts | 308° |
| 2026-05-05 13:47 | 45.71771 | 5.08116 | 796 ft | 3 kts | 343° |
| 2026-05-05 13:47 | 45.71753 | 5.08118 | 796 ft | 3 kts | 25° |
| 2026-05-05 13:47 | 45.71748 | 5.08115 | 796 ft | 0 kts | 35° |
| 2026-05-05 13:49 | 45.71750 | 5.08117 | 796 ft | 2 kts | 36° |
| 2026-05-05 13:50 | 45.71773 | 5.08139 | 796 ft | 6 kts | 32° |
| 2026-05-05 13:50 | 45.71823 | 5.08173 | 795 ft | 10 kts | 19° |
| 2026-05-05 13:50 | 45.71895 | 5.08202 | 795 ft | 12 kts | 14° |
| 2026-05-05 13:50 | 45.71968 | 5.08247 | 794 ft | 9 kts | 53° |
| 2026-05-05 13:51 | 45.71960 | 5.08339 | 794 ft | 10 kts | 106° |
| 2026-05-05 13:51 | 45.71959 | 5.08436 | 794 ft | 10 kts | 67° |
| 2026-05-05 13:51 | 45.72019 | 5.08452 | 794 ft | 10 kts | 354° |
| 2026-05-05 13:51 | 45.72093 | 5.08443 | 793 ft | 13 kts | 355° |
| 2026-05-05 13:52 | 45.72187 | 5.08432 | 792 ft | 14 kts | 354° |
| 2026-05-05 13:52 | 45.72282 | 5.08419 | 790 ft | 14 kts | 355° |
| 2026-05-05 13:52 | 45.72377 | 5.08407 | 789 ft | 14 kts | 355° |
| 2026-05-05 13:52 | 45.72468 | 5.08398 | 788 ft | 13 kts | 356° |
| 2026-05-05 13:53 | 45.72555 | 5.08386 | 787 ft | 13 kts | 354° |
| 2026-05-05 13:53 | 45.72641 | 5.08376 | 786 ft | 12 kts | 354° |
| 2026-05-05 13:53 | 45.72723 | 5.08365 | 785 ft | 12 kts | 355° |
| 2026-05-05 13:53 | 45.72801 | 5.08357 | 784 ft | 11 kts | 355° |
| 2026-05-05 13:54 | 45.72873 | 5.08348 | 783 ft | 10 kts | 355° |
| 2026-05-05 13:54 | 45.72940 | 5.08340 | 782 ft | 9 kts | 355° |
| 2026-05-05 13:54 | 45.73002 | 5.08332 | 782 ft | 9 kts | 355° |
| 2026-05-05 13:54 | 45.73061 | 5.08325 | 781 ft | 8 kts | 355° |
| 2026-05-05 13:55 | 45.73115 | 5.08319 | 780 ft | 8 kts | 355° |
| 2026-05-05 13:55 | 45.73166 | 5.08313 | 780 ft | 7 kts | 355° |
| 2026-05-05 13:55 | 45.73211 | 5.08308 | 779 ft | 6 kts | 355° |
| 2026-05-05 13:55 | 45.73253 | 5.08303 | 779 ft | 6 kts | 355° |
| 2026-05-05 13:56 | 45.73299 | 5.08297 | 778 ft | 9 kts | 355° |
| 2026-05-05 13:56 | 45.73385 | 5.08286 | 777 ft | 15 kts | 355° |
| 2026-05-05 13:56 | 45.73504 | 5.08269 | 776 ft | 14 kts | 355° |
| 2026-05-05 13:56 | 45.73593 | 5.08260 | 775 ft | 12 kts | 355° |
| 2026-05-05 13:57 | 45.73674 | 5.08261 | 774 ft | 10 kts | 17° |
| 2026-05-05 13:57 | 45.73729 | 5.08261 | 774 ft | 8 kts | 336° |
| 2026-05-05 13:57 | 45.73777 | 5.08238 | 774 ft | 7 kts | 353° |
| 2026-05-05 13:57 | 45.73822 | 5.08233 | 773 ft | 6 kts | 355° |
| 2026-05-05 13:58 | 45.73870 | 5.08227 | 773 ft | 9 kts | 355° |
| 2026-05-05 13:58 | 45.73947 | 5.08219 | 772 ft | 12 kts | 355° |
| 2026-05-05 13:58 | 45.74026 | 5.08216 | 772 ft | 11 kts | 8° |
| 2026-05-05 13:58 | 45.74100 | 5.08239 | 771 ft | 10 kts | 13° |
| 2026-05-05 13:59 | 45.74228 | 5.08283 | 770 ft | 9 kts | 13° |
| 2026-05-05 13:59 | 45.74284 | 5.08302 | 769 ft | 8 kts | 13° |
| 2026-05-05 14:00 | 45.74352 | 5.08421 | 769 ft | 11 kts | 82° |
| 2026-05-05 14:00 | 45.74356 | 5.08526 | 770 ft | 10 kts | 92° |
| 2026-05-05 14:00 | 45.74328 | 5.08629 | 771 ft | 11 kts | 144° |
| 2026-05-05 14:00 | 45.74305 | 5.08638 | 772 ft | 0 kts | 174° |
| 2026-05-05 14:01 | 45.74199 | 5.08650 | 772 ft | 49 kts | 175° |
| 2026-05-05 14:01 | 45.73648 | 5.08717 | 776 ft | 109 kts | 175° |
| 2026-05-05 14:01 | 45.72737 | 5.08827 | 786 ft | 153 kts | 175° |
| 2026-05-05 14:02 | 45.71602 | 5.08975 | 1160 ft | 168 kts | 178° |
| 2026-05-05 14:02 | 45.70426 | 5.09141 | 1848 ft | 171 kts | 177° |
| 2026-05-05 14:02 | 45.69219 | 5.09307 | 2521 ft | 177 kts | 178° |
| 2026-05-05 14:02 | 45.67950 | 5.09467 | 3138 ft | 192 kts | 178° |
| 2026-05-05 14:03 | 45.66515 | 5.09612 | 3578 ft | 220 kts | 178° |
| 2026-05-05 14:03 | 45.64949 | 5.09784 | 4444 ft | 228 kts | 178° |
| 2026-05-05 14:03 | 45.63342 | 5.10370 | 4988 ft | 253 kts | 154° |
| 2026-05-05 14:03 | 45.62075 | 5.12201 | 5677 ft | 272 kts | 120° |
| 2026-05-05 14:04 | 45.61421 | 5.14737 | 6486 ft | 279 kts | 112° |
| 2026-05-05 14:04 | 45.60830 | 5.17402 | 6884 ft | 281 kts | 111° |
| 2026-05-05 14:04 | 45.60247 | 5.20089 | 7556 ft | 283 kts | 111° |
| 2026-05-05 14:04 | 45.59661 | 5.22785 | 8462 ft | 285 kts | 112° |
| 2026-05-05 14:05 | 45.59064 | 5.25499 | 9301 ft | 288 kts | 111° |
| 2026-05-05 14:05 | 45.58453 | 5.28242 | 10076 ft | 292 kts | 111° |
| 2026-05-05 14:05 | 45.57808 | 5.31102 | 10350 ft | 313 kts | 112° |
| 2026-05-05 14:05 | 45.57118 | 5.34159 | 10656 ft | 331 kts | 111° |
| 2026-05-05 14:06 | 45.56432 | 5.37237 | 10887 ft | 318 kts | 111° |
| 2026-05-05 14:06 | 45.55770 | 5.40223 | 10637 ft | 313 kts | 111° |
| 2026-05-05 14:06 | 45.55114 | 5.43166 | 10732 ft | 307 kts | 112° |
| 2026-05-05 14:06 | 45.54472 | 5.46026 | 11529 ft | 305 kts | 112° |
| 2026-05-05 14:07 | 45.53817 | 5.48911 | 12430 ft | 307 kts | 113° |
| 2026-05-05 14:07 | 45.53150 | 5.51827 | 13192 ft | 311 kts | 113° |
| 2026-05-05 14:07 | 45.52474 | 5.54789 | 13882 ft | 316 kts | 113° |
| 2026-05-05 14:07 | 45.51792 | 5.57788 | 14507 ft | 319 kts | 113° |
| 2026-05-05 14:08 | 45.51186 | 5.60867 | 15140 ft | 326 kts | 105° |
| 2026-05-05 14:08 | 45.50947 | 5.64116 | 15781 ft | 334 kts | 96° |
| 2026-05-05 14:08 | 45.51120 | 5.67407 | 16380 ft | 341 kts | 86° |
| 2026-05-05 14:08 | 45.51454 | 5.70776 | 16990 ft | 344 kts | 86° |
| 2026-05-05 14:09 | 45.51781 | 5.74170 | 17621 ft | 347 kts | 86° |
| 2026-05-05 14:09 | 45.52105 | 5.77607 | 18216 ft | 350 kts | 86° |
| 2026-05-05 14:09 | 45.52424 | 5.81069 | 18743 ft | 354 kts | 86° |
| 2026-05-05 14:09 | 45.52743 | 5.84570 | 19287 ft | 358 kts | 86° |
| 2026-05-05 14:10 | 45.53078 | 5.88117 | 19516 ft | 362 kts | 84° |
| 2026-05-05 14:10 | 45.53727 | 5.91607 | 19754 ft | 368 kts | 72° |
| 2026-05-05 14:10 | 45.54845 | 5.94908 | 20042 ft | 373 kts | 60° |
| 2026-05-05 14:10 | 45.56418 | 5.97878 | 20420 ft | 378 kts | 47° |
| 2026-05-05 14:11 | 45.58388 | 6.00379 | 20757 ft | 379 kts | 34° |
| 2026-05-05 14:11 | 45.60626 | 6.02405 | 21224 ft | 382 kts | 30° |
| 2026-05-05 14:11 | 45.62895 | 6.04406 | 21728 ft | 384 kts | 31° |
| 2026-05-05 14:11 | 45.65146 | 6.06402 | 22232 ft | 386 kts | 31° |
| 2026-05-05 14:12 | 45.67436 | 6.08441 | 22735 ft | 389 kts | 31° |
| 2026-05-05 14:12 | 45.69744 | 6.10499 | 23269 ft | 391 kts | 30° |
| 2026-05-05 14:12 | 45.72059 | 6.12564 | 23746 ft | 394 kts | 31° |
| 2026-05-05 14:12 | 45.74392 | 6.14647 | 24150 ft | 398 kts | 31° |
| 2026-05-05 14:13 | 45.76752 | 6.16754 | 24556 ft | 402 kts | 31° |
| 2026-05-05 14:13 | 45.79130 | 6.18877 | 24967 ft | 404 kts | 30° |
| 2026-05-05 14:13 | 45.81513 | 6.21002 | 25397 ft | 406 kts | 31° |
| 2026-05-05 14:13 | 45.83926 | 6.23152 | 25819 ft | 408 kts | 31° |
| 2026-05-05 14:14 | 45.86344 | 6.25308 | 26247 ft | 410 kts | 30° |
| 2026-05-05 14:14 | 45.88769 | 6.27475 | 26656 ft | 410 kts | 30° |
| 2026-05-05 14:14 | 45.91164 | 6.29620 | 27079 ft | 412 kts | 30° |
| 2026-05-05 14:14 | 45.93605 | 6.31809 | 27468 ft | 415 kts | 30° |
| 2026-05-05 14:15 | 45.96075 | 6.34030 | 27731 ft | 421 kts | 30° |
| 2026-05-05 14:15 | 45.98574 | 6.36282 | 27967 ft | 426 kts | 30° |
| 2026-05-05 14:15 | 46.01093 | 6.38554 | 28199 ft | 427 kts | 31° |
| 2026-05-05 14:15 | 46.03613 | 6.40829 | 28413 ft | 426 kts | 30° |
| 2026-05-05 14:16 | 46.06125 | 6.43095 | 28625 ft | 427 kts | 30° |
| 2026-05-05 14:16 | 46.08650 | 6.45370 | 28847 ft | 429 kts | 30° |
| 2026-05-05 14:16 | 46.11186 | 6.47656 | 29072 ft | 430 kts | 30° |
| 2026-05-05 14:16 | 46.13698 | 6.49923 | 29270 ft | 432 kts | 30° |
| 2026-05-05 14:17 | 46.16248 | 6.52232 | 29516 ft | 434 kts | 30° |
| 2026-05-05 14:17 | 46.18815 | 6.54562 | 29779 ft | 436 kts | 31° |
| 2026-05-05 14:17 | 46.21377 | 6.56894 | 30012 ft | 435 kts | 31° |
| 2026-05-05 14:17 | 46.23947 | 6.59235 | 30225 ft | 436 kts | 31° |
| 2026-05-05 14:18 | 46.26490 | 6.61553 | 30437 ft | 438 kts | 31° |
| 2026-05-05 14:18 | 46.29079 | 6.63912 | 30665 ft | 440 kts | 31° |
| 2026-05-05 14:18 | 46.31676 | 6.66278 | 30913 ft | 442 kts | 31° |
| 2026-05-05 14:18 | 46.34289 | 6.68663 | 31189 ft | 444 kts | 31° |
| 2026-05-05 14:19 | 46.36909 | 6.71058 | 31470 ft | 447 kts | 31° |
| 2026-05-05 14:19 | 46.39540 | 6.73470 | 31752 ft | 448 kts | 32° |
| 2026-05-05 14:19 | 46.42177 | 6.75892 | 32052 ft | 449 kts | 32° |
| 2026-05-05 14:19 | 46.44817 | 6.78318 | 32372 ft | 451 kts | 31° |
| 2026-05-05 14:20 | 46.47474 | 6.80762 | 32632 ft | 453 kts | 31° |
| 2026-05-05 14:20 | 46.50150 | 6.83229 | 32892 ft | 456 kts | 32° |
| 2026-05-05 14:20 | 46.52841 | 6.85713 | 33164 ft | 458 kts | 33° |
| 2026-05-05 14:20 | 46.55391 | 6.88509 | 33410 ft | 461 kts | 41° |
| 2026-05-05 14:21 | 46.57639 | 6.91750 | 33676 ft | 462 kts | 50° |
| 2026-05-05 14:21 | 46.59665 | 6.95368 | 33973 ft | 462 kts | 52° |
| 2026-05-05 14:21 | 46.61685 | 6.99028 | 34114 ft | 466 kts | 52° |
| 2026-05-05 14:21 | 46.63728 | 7.02720 | 34231 ft | 471 kts | 52° |
| 2026-05-05 14:22 | 46.65797 | 7.06444 | 34381 ft | 474 kts | 52° |
| 2026-05-05 14:22 | 46.67868 | 7.10164 | 34779 ft | 470 kts | 52° |
| 2026-05-05 14:22 | 46.69919 | 7.13854 | 35186 ft | 467 kts | 52° |
| 2026-05-05 14:22 | 46.71949 | 7.17519 | 35592 ft | 463 kts | 52° |
| 2026-05-05 14:23 | 46.73963 | 7.21170 | 35834 ft | 463 kts | 52° |
| 2026-05-05 14:23 | 46.75991 | 7.24860 | 35892 ft | 469 kts | 52° |
| 2026-05-05 14:23 | 46.80107 | 7.32375 | 35881 ft | 478 kts | 52° |
| 2026-05-05 14:24 | 46.84278 | 7.39994 | 35894 ft | 481 kts | 52° |
| 2026-05-05 14:24 | 46.88435 | 7.47587 | 35892 ft | 481 kts | 52° |
| 2026-05-05 14:25 | 46.92606 | 7.55259 | 35868 ft | 481 kts | 52° |
| 2026-05-05 14:25 | 46.96748 | 7.62911 | 35864 ft | 478 kts | 53° |
| 2026-05-05 14:26 | 47.00872 | 7.70534 | 35866 ft | 477 kts | 53° |
| 2026-05-05 14:26 | 47.04994 | 7.78170 | 35862 ft | 477 kts | 53° |
| 2026-05-05 14:27 | 47.09087 | 7.85783 | 35863 ft | 477 kts | 53° |
| 2026-05-05 14:27 | 47.13210 | 7.93493 | 35860 ft | 475 kts | 55° |
| 2026-05-05 14:28 | 47.16759 | 8.01613 | 35857 ft | 472 kts | 60° |
| 2026-05-05 14:28 | 47.20248 | 8.09796 | 35861 ft | 472 kts | 60° |
| 2026-05-05 14:29 | 47.23711 | 8.17943 | 35865 ft | 472 kts | 60° |
| 2026-05-05 14:29 | 47.27199 | 8.26166 | 35858 ft | 472 kts | 60° |
| 2026-05-05 14:30 | 47.31216 | 8.33810 | 36017 ft | 474 kts | 43° |
| 2026-05-05 14:30 | 47.33774 | 8.36753 | 36274 ft | 473 kts | 33° |
| 2026-05-05 14:30 | 47.36535 | 8.39415 | 36538 ft | 473 kts | 33° |
| 2026-05-05 14:31 | 47.39288 | 8.42073 | 36769 ft | 473 kts | 33° |
| 2026-05-05 14:31 | 47.42046 | 8.44738 | 36855 ft | 474 kts | 33° |
| 2026-05-05 14:31 | 47.47572 | 8.50085 | 36866 ft | 474 kts | 33° |
| 2026-05-05 14:32 | 47.53080 | 8.55432 | 36865 ft | 473 kts | 33° |
| 2026-05-05 14:32 | 47.58576 | 8.60795 | 36866 ft | 472 kts | 33° |
| 2026-05-05 14:33 | 47.63136 | 8.65261 | 36866 ft | 472 kts | 33° |
| 2026-05-05 14:33 | 47.69527 | 8.71515 | 36872 ft | 472 kts | 34° |
| 2026-05-05 14:34 | 47.75003 | 8.76873 | 36855 ft | 471 kts | 34° |
| 2026-05-05 14:34 | 47.79555 | 8.81359 | 36857 ft | 471 kts | 34° |
| 2026-05-05 14:35 | 47.85020 | 8.86764 | 36862 ft | 471 kts | 34° |
| 2026-05-05 14:35 | 47.90479 | 8.92168 | 36840 ft | 471 kts | 34° |
| 2026-05-05 14:36 | 47.95942 | 8.97590 | 36844 ft | 471 kts | 34° |
| 2026-05-05 14:36 | 48.01396 | 9.03013 | 36848 ft | 471 kts | 34° |
| 2026-05-05 14:37 | 48.06812 | 9.08414 | 36854 ft | 471 kts | 34° |
| 2026-05-05 14:37 | 48.12262 | 9.13862 | 36865 ft | 471 kts | 34° |
| 2026-05-05 14:38 | 48.18169 | 9.18035 | 36866 ft | 470 kts | 15° |
| 2026-05-05 14:38 | 48.24594 | 9.19609 | 36855 ft | 468 kts | 5° |
| 2026-05-05 14:39 | 48.31071 | 9.20685 | 36849 ft | 468 kts | 5° |
| 2026-05-05 14:39 | 48.37546 | 9.21783 | 36853 ft | 468 kts | 5° |
| 2026-05-05 14:40 | 48.44024 | 9.22890 | 36855 ft | 468 kts | 5° |
| 2026-05-05 14:40 | 48.50492 | 9.23994 | 36855 ft | 468 kts | 5° |
| 2026-05-05 14:41 | 48.56963 | 9.25097 | 36864 ft | 467 kts | 5° |
| 2026-05-05 14:41 | 48.63388 | 9.26188 | 36861 ft | 467 kts | 5° |
| 2026-05-05 14:42 | 48.69859 | 9.27186 | 36865 ft | 467 kts | 4° |
| 2026-05-05 14:42 | 48.76333 | 9.28153 | 36869 ft | 468 kts | 5° |
| 2026-05-05 14:43 | 48.82810 | 9.29124 | 36865 ft | 467 kts | 5° |
| 2026-05-05 14:43 | 48.89287 | 9.30108 | 36858 ft | 467 kts | 5° |
| 2026-05-05 14:44 | 48.95755 | 9.31113 | 36860 ft | 467 kts | 5° |
| 2026-05-05 14:44 | 49.02174 | 9.32126 | 36859 ft | 467 kts | 5° |
| 2026-05-05 14:45 | 49.08646 | 9.33119 | 36857 ft | 467 kts | 5° |
| 2026-05-05 14:45 | 49.15114 | 9.34119 | 36859 ft | 466 kts | 5° |
| 2026-05-05 14:46 | 49.21578 | 9.35123 | 36854 ft | 467 kts | 5° |
| 2026-05-05 14:46 | 49.28045 | 9.36123 | 36853 ft | 467 kts | 5° |
| 2026-05-05 14:47 | 49.34483 | 9.37132 | 36864 ft | 467 kts | 5° |
| 2026-05-05 14:47 | 49.40914 | 9.38148 | 36860 ft | 467 kts | 5° |
| 2026-05-05 14:48 | 49.47379 | 9.39161 | 36845 ft | 467 kts | 5° |
| 2026-05-05 14:48 | 49.53845 | 9.40179 | 36843 ft | 467 kts | 5° |
| 2026-05-05 14:49 | 49.60316 | 9.41210 | 36838 ft | 467 kts | 5° |
| 2026-05-05 14:49 | 49.66782 | 9.42235 | 36838 ft | 467 kts | 5° |
| 2026-05-05 14:50 | 49.73252 | 9.43260 | 36841 ft | 467 kts | 5° |
| 2026-05-05 14:50 | 49.79722 | 9.44298 | 36837 ft | 467 kts | 5° |
| 2026-05-05 14:51 | 49.86185 | 9.45342 | 36842 ft | 467 kts | 5° |
| 2026-05-05 14:51 | 49.92616 | 9.46373 | 36840 ft | 466 kts | 5° |
| 2026-05-05 14:52 | 49.99071 | 9.47404 | 36836 ft | 466 kts | 5° |
| 2026-05-05 14:52 | 50.05530 | 9.48452 | 36837 ft | 466 kts | 5° |
| 2026-05-05 14:53 | 50.11901 | 9.50388 | 36842 ft | 467 kts | 11° |
| 2026-05-05 14:53 | 50.18271 | 9.52532 | 36825 ft | 466 kts | 11° |
| 2026-05-05 14:54 | 50.24574 | 9.54635 | 36818 ft | 466 kts | 11° |
| 2026-05-05 14:54 | 50.30930 | 9.56750 | 36821 ft | 467 kts | 11° |
| 2026-05-05 14:55 | 50.37326 | 9.58906 | 36811 ft | 467 kts | 11° |
| 2026-05-05 14:55 | 50.43642 | 9.61046 | 36811 ft | 467 kts | 11° |
| 2026-05-05 14:56 | 50.49997 | 9.63207 | 36824 ft | 468 kts | 11° |
| 2026-05-05 14:56 | 50.56372 | 9.65382 | 36812 ft | 468 kts | 11° |
| 2026-05-05 14:57 | 50.62743 | 9.67544 | 36815 ft | 468 kts | 11° |
| 2026-05-05 14:57 | 50.69123 | 9.69725 | 36811 ft | 468 kts | 11° |
| 2026-05-05 14:58 | 50.75452 | 9.71891 | 36813 ft | 468 kts | 11° |
| 2026-05-05 14:58 | 50.81818 | 9.74081 | 36812 ft | 468 kts | 11° |
| 2026-05-05 14:59 | 50.88185 | 9.76274 | 36814 ft | 468 kts | 11° |
| 2026-05-05 14:59 | 50.94555 | 9.78476 | 36833 ft | 468 kts | 11° |
| 2026-05-05 15:00 | 50.99853 | 9.80312 | 36825 ft | 468 kts | 11° |
| 2026-05-05 15:00 | 51.07298 | 9.82911 | 36825 ft | 468 kts | 11° |
| 2026-05-05 15:01 | 51.13664 | 9.85128 | 36835 ft | 468 kts | 11° |
| 2026-05-05 15:01 | 51.19999 | 9.87333 | 36849 ft | 469 kts | 10° |
| 2026-05-05 15:02 | 51.26274 | 9.90282 | 36823 ft | 471 kts | 18° |
| 2026-05-05 15:02 | 51.32476 | 9.93718 | 36828 ft | 472 kts | 17° |
| 2026-05-05 15:03 | 51.38693 | 9.97150 | 36846 ft | 472 kts | 17° |
| 2026-05-05 15:03 | 51.44913 | 10.00593 | 36837 ft | 473 kts | 17° |
| 2026-05-05 15:04 | 51.51139 | 10.04061 | 36840 ft | 474 kts | 17° |
| 2026-05-05 15:04 | 51.57373 | 10.07540 | 36846 ft | 474 kts | 17° |
| 2026-05-05 15:05 | 51.66725 | 10.12768 | 36868 ft | 474 kts | 17° |
| 2026-05-05 15:06 | 51.72913 | 10.16249 | 36865 ft | 473 kts | 17° |
| 2026-05-05 15:06 | 51.79133 | 10.19758 | 36877 ft | 473 kts | 17° |
| 2026-05-05 15:07 | 51.85352 | 10.23286 | 36902 ft | 473 kts | 16° |
| 2026-05-05 15:07 | 51.91560 | 10.26807 | 36895 ft | 472 kts | 16° |
| 2026-05-05 15:08 | 51.97766 | 10.30324 | 36893 ft | 472 kts | 16° |
| 2026-05-05 15:08 | 52.03960 | 10.33852 | 36872 ft | 472 kts | 16° |
| 2026-05-05 15:09 | 52.10170 | 10.37411 | 36897 ft | 471 kts | 16° |
| 2026-05-05 15:09 | 52.16351 | 10.40974 | 36901 ft | 471 kts | 16° |
| 2026-05-05 15:10 | 52.22490 | 10.44517 | 36898 ft | 471 kts | 16° |
| 2026-05-05 15:10 | 52.28675 | 10.48079 | 36899 ft | 471 kts | 15° |
| 2026-05-05 15:11 | 52.34846 | 10.51640 | 36915 ft | 470 kts | 15° |
| 2026-05-05 15:11 | 52.41016 | 10.55228 | 36910 ft | 469 kts | 15° |
| 2026-05-05 15:12 | 52.47165 | 10.58814 | 36906 ft | 469 kts | 15° |
| 2026-05-05 15:12 | 52.53315 | 10.62404 | 36930 ft | 469 kts | 16° |
| 2026-05-05 15:13 | 52.59457 | 10.65996 | 36930 ft | 467 kts | 16° |
| 2026-05-05 15:13 | 52.65576 | 10.69599 | 36924 ft | 466 kts | 16° |
| 2026-05-05 15:14 | 52.71653 | 10.73180 | 36920 ft | 466 kts | 16° |
| 2026-05-05 15:14 | 52.77762 | 10.76783 | 36936 ft | 465 kts | 16° |
| 2026-05-05 15:15 | 52.83853 | 10.80394 | 36931 ft | 464 kts | 16° |
| 2026-05-05 15:15 | 52.89935 | 10.84020 | 36932 ft | 464 kts | 16° |
| 2026-05-05 15:16 | 52.95967 | 10.87613 | 36931 ft | 463 kts | 16° |
| 2026-05-05 15:16 | 53.02039 | 10.91248 | 36927 ft | 463 kts | 16° |
| 2026-05-05 15:17 | 53.08104 | 10.94882 | 36930 ft | 463 kts | 16° |
| 2026-05-05 15:17 | 53.14162 | 10.98526 | 36928 ft | 462 kts | 16° |
| 2026-05-05 15:18 | 53.20215 | 11.02186 | 36923 ft | 462 kts | 16° |
| 2026-05-05 15:18 | 53.26224 | 11.05833 | 36945 ft | 462 kts | 16° |
| 2026-05-05 15:19 | 53.32270 | 11.09514 | 36935 ft | 461 kts | 16° |
| 2026-05-05 15:19 | 53.38308 | 11.13178 | 36933 ft | 461 kts | 16° |
| 2026-05-05 15:20 | 53.44296 | 11.16824 | 36929 ft | 460 kts | 16° |
| 2026-05-05 15:20 | 53.50323 | 11.20519 | 36929 ft | 461 kts | 16° |
| 2026-05-05 15:21 | 53.55350 | 11.23613 | 36911 ft | 462 kts | 16° |
| 2026-05-05 15:21 | 53.62377 | 11.27953 | 36908 ft | 463 kts | 16° |
| 2026-05-05 15:22 | 53.67443 | 11.31091 | 36908 ft | 463 kts | 16° |
| 2026-05-05 15:22 | 53.73467 | 11.34811 | 36925 ft | 464 kts | 15° |
| 2026-05-05 15:23 | 53.79535 | 11.38575 | 36752 ft | 466 kts | 15° |
| 2026-05-05 15:23 | 53.82615 | 11.40489 | 35606 ft | 478 kts | 15° |
| 2026-05-05 15:23 | 53.85731 | 11.42438 | 35150 ft | 473 kts | 15° |
| 2026-05-05 15:23 | 53.88804 | 11.44376 | 34647 ft | 469 kts | 14° |
| 2026-05-05 15:24 | 53.91859 | 11.46301 | 34073 ft | 467 kts | 14° |
| 2026-05-05 15:24 | 53.94903 | 11.48214 | 33463 ft | 465 kts | 14° |
| 2026-05-05 15:24 | 53.97938 | 11.50120 | 32899 ft | 462 kts | 14° |
| 2026-05-05 15:24 | 54.00902 | 11.51983 | 32360 ft | 458 kts | 14° |
| 2026-05-05 15:25 | 54.03877 | 11.53858 | 31807 ft | 455 kts | 14° |
| 2026-05-05 15:25 | 54.06835 | 11.55722 | 31271 ft | 452 kts | 14° |
| 2026-05-05 15:25 | 54.09778 | 11.57582 | 30741 ft | 449 kts | 14° |
| 2026-05-05 15:25 | 54.12696 | 11.59430 | 30224 ft | 446 kts | 14° |
| 2026-05-05 15:26 | 54.15602 | 11.61274 | 29666 ft | 443 kts | 14° |
| 2026-05-05 15:26 | 54.18478 | 11.63103 | 29177 ft | 438 kts | 14° |
| 2026-05-05 15:26 | 54.21322 | 11.64916 | 28685 ft | 434 kts | 14° |
| 2026-05-05 15:26 | 54.24136 | 11.66707 | 28213 ft | 428 kts | 14° |
| 2026-05-05 15:27 | 54.26880 | 11.68457 | 27753 ft | 423 kts | 14° |
| 2026-05-05 15:27 | 54.29626 | 11.70207 | 27276 ft | 419 kts | 14° |
| 2026-05-05 15:27 | 54.32344 | 11.71940 | 26808 ft | 414 kts | 14° |
| 2026-05-05 15:27 | 54.35035 | 11.73659 | 26324 ft | 411 kts | 14° |
| 2026-05-05 15:28 | 54.37703 | 11.75365 | 25850 ft | 408 kts | 14° |
| 2026-05-05 15:28 | 54.40351 | 11.77069 | 25347 ft | 405 kts | 14° |
| 2026-05-05 15:28 | 54.42982 | 11.78768 | 24870 ft | 402 kts | 14° |
| 2026-05-05 15:28 | 54.45598 | 11.80482 | 24382 ft | 401 kts | 17° |
| 2026-05-05 15:29 | 54.48137 | 11.82315 | 23910 ft | 400 kts | 18° |
| 2026-05-05 15:29 | 54.50671 | 11.84293 | 23411 ft | 399 kts | 20° |
| 2026-05-05 15:29 | 54.53182 | 11.86331 | 22885 ft | 396 kts | 20° |
| 2026-05-05 15:29 | 54.55662 | 11.88365 | 22425 ft | 392 kts | 20° |
| 2026-05-05 15:30 | 54.58121 | 11.90366 | 21966 ft | 389 kts | 20° |
| 2026-05-05 15:30 | 54.60563 | 11.92330 | 21512 ft | 385 kts | 20° |
| 2026-05-05 15:30 | 54.62878 | 11.94553 | 21069 ft | 387 kts | 29° |
| 2026-05-05 15:30 | 54.65113 | 11.97114 | 20626 ft | 384 kts | 29° |
| 2026-05-05 15:31 | 54.67329 | 11.99667 | 20207 ft | 382 kts | 30° |
| 2026-05-05 15:31 | 54.69535 | 12.02216 | 19744 ft | 380 kts | 30° |
| 2026-05-05 15:31 | 54.71729 | 12.04754 | 19301 ft | 379 kts | 30° |
| 2026-05-05 15:31 | 54.73907 | 12.07279 | 18983 ft | 373 kts | 30° |
| 2026-05-05 15:32 | 54.76029 | 12.09748 | 18913 ft | 361 kts | 30° |
| 2026-05-05 15:32 | 54.78105 | 12.12165 | 18882 ft | 358 kts | 30° |
| 2026-05-05 15:32 | 54.80195 | 12.14590 | 18143 ft | 367 kts | 30° |
| 2026-05-05 15:32 | 54.82322 | 12.17052 | 17227 ft | 367 kts | 30° |
| 2026-05-05 15:33 | 54.84412 | 12.19486 | 16773 ft | 354 kts | 30° |
| 2026-05-05 15:33 | 54.86418 | 12.21837 | 16394 ft | 341 kts | 30° |
| 2026-05-05 15:33 | 54.88350 | 12.24106 | 16027 ft | 332 kts | 30° |
| 2026-05-05 15:33 | 54.90267 | 12.26350 | 15650 ft | 332 kts | 30° |
| 2026-05-05 15:34 | 54.92189 | 12.28597 | 15292 ft | 333 kts | 30° |
| 2026-05-05 15:34 | 54.94087 | 12.30817 | 14934 ft | 333 kts | 30° |
| 2026-05-05 15:34 | 54.96012 | 12.33069 | 14558 ft | 333 kts | 30° |
| 2026-05-05 15:34 | 54.97938 | 12.35323 | 14188 ft | 333 kts | 30° |
| 2026-05-05 15:35 | 54.99861 | 12.37578 | 13817 ft | 334 kts | 30° |
| 2026-05-05 15:35 | 55.01789 | 12.39839 | 13413 ft | 334 kts | 30° |
| 2026-05-05 15:35 | 55.03712 | 12.42090 | 13035 ft | 332 kts | 30° |
| 2026-05-05 15:35 | 55.05631 | 12.44333 | 12656 ft | 330 kts | 30° |
| 2026-05-05 15:36 | 55.07534 | 12.46553 | 12270 ft | 329 kts | 30° |
| 2026-05-05 15:36 | 55.09431 | 12.48769 | 11895 ft | 327 kts | 30° |
| 2026-05-05 15:36 | 55.11319 | 12.50973 | 11501 ft | 326 kts | 30° |
| 2026-05-05 15:36 | 55.13202 | 12.53174 | 11115 ft | 324 kts | 31° |
| 2026-05-05 15:37 | 55.15079 | 12.55378 | 10731 ft | 323 kts | 31° |
| 2026-05-05 15:37 | 55.16940 | 12.57571 | 10325 ft | 322 kts | 31° |
| 2026-05-05 15:37 | 55.18794 | 12.59762 | 9924 ft | 321 kts | 31° |
| 2026-05-05 15:37 | 55.20628 | 12.61929 | 9722 ft | 313 kts | 31° |
| 2026-05-05 15:38 | 55.22381 | 12.64000 | 9491 ft | 305 kts | 31° |
| 2026-05-05 15:38 | 55.24178 | 12.65911 | 9145 ft | 300 kts | 25° |
| 2026-05-05 15:38 | 55.25998 | 12.67653 | 8779 ft | 297 kts | 26° |
| 2026-05-05 15:38 | 55.27800 | 12.69388 | 8414 ft | 294 kts | 26° |
| 2026-05-05 15:39 | 55.29583 | 12.71109 | 8065 ft | 291 kts | 26° |
| 2026-05-05 15:39 | 55.31353 | 12.72819 | 7689 ft | 288 kts | 26° |
| 2026-05-05 15:39 | 55.33164 | 12.74213 | 7318 ft | 282 kts | 11° |
| 2026-05-05 15:39 | 55.35064 | 12.74435 | 6951 ft | 276 kts | 351° |
| 2026-05-05 15:40 | 55.36852 | 12.73387 | 6635 ft | 268 kts | 329° |
| 2026-05-05 15:40 | 55.38255 | 12.71298 | 6259 ft | 264 kts | 308° |
| 2026-05-05 15:40 | 55.39111 | 12.68460 | 5836 ft | 264 kts | 288° |
| 2026-05-05 15:40 | 55.39585 | 12.65363 | 5480 ft | 260 kts | 287° |
| 2026-05-05 15:41 | 55.40048 | 12.62302 | 5154 ft | 256 kts | 287° |
| 2026-05-05 15:41 | 55.40500 | 12.59337 | 5018 ft | 245 kts | 287° |
| 2026-05-05 15:41 | 55.40933 | 12.56501 | 4847 ft | 236 kts | 287° |
| 2026-05-05 15:41 | 55.41356 | 12.53741 | 4663 ft | 231 kts | 287° |
| 2026-05-05 15:42 | 55.41892 | 12.51096 | 4528 ft | 228 kts | 301° |
| 2026-05-05 15:42 | 55.42824 | 12.48854 | 4176 ft | 230 kts | 313° |
| 2026-05-05 15:42 | 55.43886 | 12.46718 | 3707 ft | 227 kts | 313° |
| 2026-05-05 15:42 | 55.44867 | 12.44744 | 3537 ft | 202 kts | 314° |
| 2026-05-05 15:43 | 55.45842 | 12.43203 | 3446 ft | 180 kts | 334° |
| 2026-05-05 15:43 | 55.46996 | 12.42731 | 3207 ft | 165 kts | 2° |
| 2026-05-05 15:43 | 55.48051 | 12.43278 | 2977 ft | 154 kts | 28° |
| 2026-05-05 15:43 | 55.48861 | 12.44428 | 2780 ft | 146 kts | 38° |
| 2026-05-05 15:44 | 55.49612 | 12.45577 | 2583 ft | 141 kts | 38° |
| 2026-05-05 15:44 | 55.50350 | 12.46706 | 2394 ft | 140 kts | 38° |
| 2026-05-05 15:44 | 55.51081 | 12.47828 | 2204 ft | 139 kts | 38° |
| 2026-05-05 15:44 | 55.51808 | 12.48943 | 2014 ft | 138 kts | 38° |
| 2026-05-05 15:45 | 55.52528 | 12.50049 | 1829 ft | 137 kts | 39° |
| 2026-05-05 15:45 | 55.53245 | 12.51151 | 1638 ft | 137 kts | 38° |
| 2026-05-05 15:45 | 55.53965 | 12.52257 | 1455 ft | 137 kts | 38° |
| 2026-05-05 15:45 | 55.54684 | 12.53363 | 1260 ft | 137 kts | 39° |
| 2026-05-05 15:46 | 55.55405 | 12.54474 | 1081 ft | 138 kts | 39° |
| 2026-05-05 15:46 | 55.56130 | 12.55589 | 868 ft | 137 kts | 38° |
| 2026-05-05 15:46 | 55.56850 | 12.56699 | 685 ft | 137 kts | 39° |
| 2026-05-05 15:46 | 55.57567 | 12.57804 | 493 ft | 135 kts | 38° |
| 2026-05-05 15:47 | 55.58281 | 12.58904 | 315 ft | 138 kts | 39° |
| 2026-05-05 15:47 | 55.58757 | 12.59640 | 195 ft | 137 kts | 38° |
| 2026-05-05 15:47 | 55.59707 | 12.61100 | 26 ft | 130 kts | 39° |
| 2026-05-05 15:47 | 55.60264 | 12.61968 | 19 ft | 82 kts | 41° |
| 2026-05-05 15:48 | 55.60587 | 12.62355 | 24 ft | 22 kts | 9° |
| 2026-05-05 15:48 | 55.60662 | 12.62351 | 25 ft | 0 kts | 10° |
| 2026-05-05 15:51 | 55.60665 | 12.62352 | 25 ft | 2 kts | 10° |
| 2026-05-05 15:51 | 55.60728 | 12.62377 | 24 ft | 14 kts | 13° |
| 2026-05-05 15:52 | 55.60825 | 12.62455 | 23 ft | 16 kts | 39° |
| 2026-05-05 15:52 | 55.60920 | 12.62600 | 19 ft | 20 kts | 40° |
| 2026-05-05 15:52 | 55.61030 | 12.62770 | 19 ft | 22 kts | 41° |
| 2026-05-05 15:52 | 55.61140 | 12.62939 | 22 ft | 19 kts | 41° |
| 2026-05-05 15:53 | 55.61240 | 12.63096 | 23 ft | 20 kts | 41° |
| 2026-05-05 15:53 | 55.61343 | 12.63255 | 23 ft | 20 kts | 41° |
| 2026-05-05 15:53 | 55.61447 | 12.63416 | 20 ft | 19 kts | 41° |
| 2026-05-05 15:53 | 55.61547 | 12.63571 | 17 ft | 18 kts | 44° |
| 2026-05-05 15:54 | 55.61627 | 12.63693 | 18 ft | 15 kts | 41° |
| 2026-05-05 15:54 | 55.61707 | 12.63821 | 20 ft | 15 kts | 42° |
| 2026-05-05 15:54 | 55.61788 | 12.63943 | 21 ft | 16 kts | 41° |
| 2026-05-05 15:54 | 55.61876 | 12.64073 | 21 ft | 17 kts | 32° |
| 2026-05-05 15:55 | 55.61983 | 12.64165 | 21 ft | 18 kts | 25° |
| 2026-05-05 15:55 | 55.62101 | 12.64264 | 18 ft | 19 kts | 25° |
| 2026-05-05 15:55 | 55.62221 | 12.64363 | 18 ft | 18 kts | 24° |
| 2026-05-05 15:55 | 55.62322 | 12.64418 | 22 ft | 14 kts | 15° |
| 2026-05-05 15:56 | 55.62424 | 12.64466 | 19 ft | 16 kts | 15° |
| 2026-05-05 15:56 | 55.62516 | 12.64425 | 21 ft | 15 kts | 304° |
| 2026-05-05 15:56 | 55.62568 | 12.64282 | 24 ft | 8 kts | 306° |
| 2026-05-05 15:56 | 55.62623 | 12.64277 | 23 ft | 9 kts | 32° |
| 2026-05-05 15:57 | 55.62692 | 12.64332 | 22 ft | 12 kts | 22° |
| 2026-05-05 15:57 | 55.62715 | 12.64409 | 20 ft | 9 kts | 98° |
| 2026-05-05 15:57 | 55.62714 | 12.64445 | 21 ft | 1 kts | 90° |
| 2026-05-05 15:57 | 55.62714 | 12.64449 | 21 ft | 0 kts | 91° |
| 2026-05-05 15:58 | 55.62714 | 12.64450 | 21 ft | 0 kts | 91° |
| 2026-05-05 15:58 | 55.62714 | 12.64458 | 21 ft | 0 kts | 91° |
| 2026-05-05 15:58 | 55.62714 | 12.64461 | 21 ft | 0 kts | 91° |